Historique des mesures à Cassis (13260), France
Quotidien Résumé Mai 27, 2017 Unités:  Métrique    US   Métrique/US
« Précédent (Jour)
Suivant (Jour) »
Quotidien Hebdomadaire Mensuel Annuel Période au choix
  Maximum: Minimum: Moyenne:
Température: TemperatureC °C 18.4 °C 22.9 °C
Point de rosée: DewpointC °C 9.7 °C 10.6 °C
Humidité: Humidity % 33 % 44 %
Vitesse du vent: 0 km/h 0 km/h 2.6 km/h
Rafales: 0 km/h - -
Vent:- - SSE
Pression: PressurehPa hPa 1013.8 hPa -
Précipitations: 0.0 mm    
Historical Graphs
 
 
Mesures pour : Mai 27, 2017
Heure Temperature Point de rosée Pression Vent Vitesse du vent Rafales Humidité Pluie (par heure) Conditions
TemperatureC °C DewpointC °C PressurehPa hPa Calm     Humidity % HourlyPrecipMM mm SoftwareType W/m2
00:11 21.0 °C 11.3 °C 1013.8 hPa NE 2.3 km/h 2.3 km/h 54 % 0.0 mm open2300-1.11 W/m2
01:10 20.8 °C 11.4 °C 1014.1 hPa Calm     55 % 0.0 mm open2300-1.11 W/m2
02:10 19.4 °C 10.7 °C 1014.1 hPa North 3.4 km/h 3.4 km/h 57 % 0.0 mm open2300-1.11 W/m2
03:10 19.1 °C 10.7 °C 1014.4 hPa Calm     58 % 0.0 mm open2300-1.11 W/m2
04:10 18.8 °C 10.6 °C 1014.8 hPa SW 2.3 km/h 2.3 km/h 59 % 0.0 mm open2300-1.11 W/m2
05:10 18.4 °C 10.2 °C 1014.8 hPa Calm     59 % 0.0 mm open2300-1.11 W/m2
06:10 18.7 °C 10.3 °C 1015.5 hPa Calm   2.3 km/h 58 % 0.0 mm open2300-1.11 W/m2
07:10 19.3 °C 10.6 °C 1015.5 hPa NNE 4.2 km/h 4.2 km/h 57 % 0.0 mm open2300-1.11 W/m2
08:10 23.0 °C 12.6 °C 1015.5 hPa Calm     52 % 0.0 mm open2300-1.11 W/m2
09:10 22.1 °C 12.1 °C 1015.8 hPa Calm     53 % 0.0 mm open2300-1.11 W/m2
10:10 24.3 °C 12.9 °C 1016.1 hPa Calm     49 % 0.0 mm open2300-1.11 W/m2
11:10 27.4 °C 14.0 °C 1016.8 hPa SE 5.6 km/h 9.3 km/h 44 % 0.0 mm open2300-1.11 W/m2
12:10 28.9 °C 12.7 °C 1016.8 hPa SSE 2.9 km/h 8.9 km/h 37 % 0.0 mm open2300-1.11 W/m2
13:10 28.9 °C 12.7 °C 1016.8 hPa SSE 8.9 km/h 8.9 km/h 37 % 0.0 mm open2300-1.11 W/m2
14:10 28.9 °C 11.4 °C 1016.5 hPa South 6.9 km/h 8.9 km/h 34 % 0.0 mm open2300-1.11 W/m2
15:10 28.1 °C 10.7 °C 1016.5 hPa South 7.6 km/h 16.9 km/h 34 % 0.0 mm open2300-1.11 W/m2
16:10 28.3 °C 10.4 °C 1016.5 hPa South 2.3 km/h 8 km/h 33 % 0.0 mm open2300-1.11 W/m2
17:10 28.1 °C 10.2 °C 1015.8 hPa SW 8.9 km/h 9.3 km/h 33 % 0.0 mm open2300-1.11 W/m2
18:10 27.5 °C 9.7 °C 1015.5 hPa Calm   7.6 km/h 33 % 0.0 mm open2300-1.11 W/m2
19:10 26.6 °C 9.8 °C 1015.5 hPa Calm   5.6 km/h 35 % 0.0 mm open2300-1.11 W/m2
20:10 25.7 °C 9.8 °C 1015.5 hPa NNW 2.3 km/h 2.3 km/h 37 % 0.0 mm open2300-1.11 W/m2
21:11 24.4 °C 9.9 °C 1015.8 hPa Calm     40 % 0.0 mm open2300-1.11 W/m2
22:10 22.4 °C 10.1 °C 1016.5 hPa Calm   3.4 km/h 46 % 0.0 mm open2300-1.11 W/m2
23:10 21.6 °C 10.7 °C 1016.5 hPa NW 5.1 km/h 6.9 km/h 50 % 0.0 mm open2300-1.11 W/m2
Observations météo à CASSIS
WU-History script by Weather Underground - 1 mb